sensor_id;sensor_type;location;lat;lon;timestamp;P1;durP1;ratioP1;P2;durP2;ratioP2
70558;SDS011;58108;48.094;11.838;2024-01-10T00:01:50;29.70;;;9.10;;
70558;SDS011;58108;48.094;11.838;2024-01-10T00:04:16;18.67;;;6.35;;
70558;SDS011;58108;48.094;11.838;2024-01-10T00:06:42;23.63;;;8.30;;
70558;SDS011;58108;48.094;11.838;2024-01-10T00:09:08;25.48;;;6.93;;
70558;SDS011;58108;48.094;11.838;2024-01-10T00:11:34;31.30;;;9.07;;
70558;SDS011;58108;48.094;11.838;2024-01-10T00:13:59;25.00;;;7.65;;
70558;SDS011;58108;48.094;11.838;2024-01-10T00:16:25;11.63;;;4.03;;
70558;SDS011;58108;48.094;11.838;2024-01-10T00:18:54;21.17;;;6.60;;
70558;SDS011;58108;48.094;11.838;2024-01-10T00:21:20;29.70;;;7.80;;
70558;SDS011;58108;48.094;11.838;2024-01-10T00:23:45;33.88;;;7.45;;
70558;SDS011;58108;48.094;11.838;2024-01-10T00:26:11;26.27;;;7.25;;
70558;SDS011;58108;48.094;11.838;2024-01-10T00:28:36;26.70;;;6.67;;
70558;SDS011;58108;48.094;11.838;2024-01-10T00:31:02;23.50;;;8.00;;
70558;SDS011;58108;48.094;11.838;2024-01-10T00:33:28;28.75;;;7.10;;
70558;SDS011;58108;48.094;11.838;2024-01-10T00:35:53;30.60;;;7.70;;
70558;SDS011;58108;48.094;11.838;2024-01-10T00:38:18;27.63;;;8.07;;
70558;SDS011;58108;48.094;11.838;2024-01-10T00:40:44;29.55;;;8.27;;
70558;SDS011;58108;48.094;11.838;2024-01-10T00:43:09;30.90;;;7.97;;
70558;SDS011;58108;48.094;11.838;2024-01-10T00:45:35;25.87;;;7.80;;
70558;SDS011;58108;48.094;11.838;2024-01-10T00:48:00;30.13;;;7.47;;
70558;SDS011;58108;48.094;11.838;2024-01-10T00:50:26;28.52;;;8.45;;
70558;SDS011;58108;48.094;11.838;2024-01-10T00:52:51;27.97;;;8.17;;
70558;SDS011;58108;48.094;11.838;2024-01-10T00:55:17;25.67;;;7.03;;
70558;SDS011;58108;48.094;11.838;2024-01-10T00:57:42;28.63;;;7.40;;
70558;SDS011;58108;48.094;11.838;2024-01-10T01:00:08;28.00;;;8.18;;
70558;SDS011;58108;48.094;11.838;2024-01-10T01:02:36;32.50;;;9.23;;
70558;SDS011;58108;48.094;11.838;2024-01-10T01:05:04;28.30;;;8.20;;
70558;SDS011;58108;48.094;11.838;2024-01-10T01:07:32;30.42;;;8.05;;
70558;SDS011;58108;48.094;11.838;2024-01-10T01:09:58;35.17;;;8.05;;
70558;SDS011;58108;48.094;11.838;2024-01-10T01:12:24;28.50;;;7.20;;
70558;SDS011;58108;48.094;11.838;2024-01-10T01:14:49;27.73;;;6.50;;
70558;SDS011;58108;48.094;11.838;2024-01-10T01:17:14;27.30;;;7.80;;
70558;SDS011;58108;48.094;11.838;2024-01-10T01:19:40;29.75;;;7.45;;
70558;SDS011;58108;48.094;11.838;2024-01-10T01:22:06;29.03;;;6.00;;
70558;SDS011;58108;48.094;11.838;2024-01-10T01:24:31;30.05;;;8.55;;
70558;SDS011;58108;48.094;11.838;2024-01-10T01:26:57;29.03;;;7.57;;
70558;SDS011;58108;48.094;11.838;2024-01-10T01:29:23;22.50;;;5.00;;
70558;SDS011;58108;48.094;11.838;2024-01-10T01:31:49;25.10;;;5.95;;
70558;SDS011;58108;48.094;11.838;2024-01-10T01:34:15;22.35;;;6.30;;
70558;SDS011;58108;48.094;11.838;2024-01-10T01:36:40;28.58;;;7.90;;
70558;SDS011;58108;48.094;11.838;2024-01-10T01:39:06;25.13;;;7.70;;
70558;SDS011;58108;48.094;11.838;2024-01-10T01:41:32;36.10;;;8.40;;
70558;SDS011;58108;48.094;11.838;2024-01-10T01:43:57;28.92;;;8.23;;
70558;SDS011;58108;48.094;11.838;2024-01-10T01:46:23;24.93;;;6.33;;
70558;SDS011;58108;48.094;11.838;2024-01-10T01:48:49;17.00;;;4.03;;
70558;SDS011;58108;48.094;11.838;2024-01-10T01:51:15;9.95;;;3.00;;
70558;SDS011;58108;48.094;11.838;2024-01-10T01:53:43;12.85;;;4.30;;
70558;SDS011;58108;48.094;11.838;2024-01-10T01:56:09;20.58;;;5.63;;
70558;SDS011;58108;48.094;11.838;2024-01-10T01:58:37;19.75;;;6.43;;
70558;SDS011;58108;48.094;11.838;2024-01-10T02:01:05;21.93;;;5.30;;
70558;SDS011;58108;48.094;11.838;2024-01-10T02:03:31;27.00;;;6.75;;
70558;SDS011;58108;48.094;11.838;2024-01-10T02:05:58;26.20;;;7.50;;
70558;SDS011;58108;48.094;11.838;2024-01-10T02:08:24;13.27;;;3.53;;
70558;SDS011;58108;48.094;11.838;2024-01-10T02:10:50;12.63;;;4.37;;
70558;SDS011;58108;48.094;11.838;2024-01-10T02:13:16;12.93;;;4.30;;
70558;SDS011;58108;48.094;11.838;2024-01-10T02:15:42;18.35;;;5.82;;
70558;SDS011;58108;48.094;11.838;2024-01-10T02:18:08;29.85;;;8.43;;
70558;SDS011;58108;48.094;11.838;2024-01-10T02:20:37;19.08;;;5.50;;
70558;SDS011;58108;48.094;11.838;2024-01-10T02:23:03;26.83;;;6.57;;
70558;SDS011;58108;48.094;11.838;2024-01-10T02:25:29;19.38;;;4.60;;
70558;SDS011;58108;48.094;11.838;2024-01-10T02:27:54;24.33;;;6.37;;
70558;SDS011;58108;48.094;11.838;2024-01-10T02:30:20;29.60;;;7.27;;
70558;SDS011;58108;48.094;11.838;2024-01-10T02:32:45;27.87;;;7.47;;
70558;SDS011;58108;48.094;11.838;2024-01-10T02:35:11;29.83;;;7.20;;
70558;SDS011;58108;48.094;11.838;2024-01-10T02:37:36;20.53;;;6.07;;
70558;SDS011;58108;48.094;11.838;2024-01-10T02:40:02;40.43;;;8.70;;
70558;SDS011;58108;48.094;11.838;2024-01-10T02:42:28;33.92;;;7.50;;
70558;SDS011;58108;48.094;11.838;2024-01-10T02:44:54;6.43;;;2.97;;
70558;SDS011;58108;48.094;11.838;2024-01-10T02:47:19;12.63;;;3.03;;
70558;SDS011;58108;48.094;11.838;2024-01-10T02:49:45;23.97;;;6.00;;
70558;SDS011;58108;48.094;11.838;2024-01-10T02:52:10;14.50;;;4.13;;
70558;SDS011;58108;48.094;11.838;2024-01-10T02:54:36;27.83;;;8.68;;
70558;SDS011;58108;48.094;11.838;2024-01-10T02:57:01;25.67;;;7.27;;
70558;SDS011;58108;48.094;11.838;2024-01-10T02:59:27;17.75;;;5.28;;
70558;SDS011;58108;48.094;11.838;2024-01-10T03:01:53;18.95;;;5.38;;
70558;SDS011;58108;48.094;11.838;2024-01-10T03:04:18;22.30;;;7.43;;
70558;SDS011;58108;48.094;11.838;2024-01-10T03:06:44;28.95;;;6.25;;
70558;SDS011;58108;48.094;11.838;2024-01-10T03:09:10;23.70;;;7.40;;
70558;SDS011;58108;48.094;11.838;2024-01-10T03:11:36;16.42;;;4.63;;
70558;SDS011;58108;48.094;11.838;2024-01-10T03:14:02;10.25;;;4.38;;
70558;SDS011;58108;48.094;11.838;2024-01-10T03:16:37;31.15;;;9.55;;
70558;SDS011;58108;48.094;11.838;2024-01-10T03:19:03;19.63;;;4.97;;
70558;SDS011;58108;48.094;11.838;2024-01-10T03:21:28;32.25;;;6.97;;
70558;SDS011;58108;48.094;11.838;2024-01-10T03:23:58;27.60;;;7.90;;
70558;SDS011;58108;48.094;11.838;2024-01-10T03:26:24;29.23;;;7.68;;
70558;SDS011;58108;48.094;11.838;2024-01-10T03:28:51;10.18;;;3.58;;
70558;SDS011;58108;48.094;11.838;2024-01-10T03:31:17;22.50;;;6.10;;
70558;SDS011;58108;48.094;11.838;2024-01-10T03:33:42;27.67;;;7.72;;
70558;SDS011;58108;48.094;11.838;2024-01-10T03:36:12;16.52;;;6.25;;
70558;SDS011;58108;48.094;11.838;2024-01-10T03:38:39;21.47;;;4.87;;
70558;SDS011;58108;48.094;11.838;2024-01-10T03:41:04;28.52;;;8.57;;
70558;SDS011;58108;48.094;11.838;2024-01-10T03:43:30;35.20;;;10.23;;
70558;SDS011;58108;48.094;11.838;2024-01-10T03:45:56;25.33;;;6.85;;
70558;SDS011;58108;48.094;11.838;2024-01-10T03:48:22;6.40;;;1.83;;
70558;SDS011;58108;48.094;11.838;2024-01-10T03:50:48;18.20;;;4.68;;
70558;SDS011;58108;48.094;11.838;2024-01-10T03:53:14;33.65;;;9.02;;
70558;SDS011;58108;48.094;11.838;2024-01-10T03:55:39;16.98;;;4.93;;
70558;SDS011;58108;48.094;11.838;2024-01-10T03:58:05;14.40;;;4.57;;
70558;SDS011;58108;48.094;11.838;2024-01-10T04:00:31;26.05;;;6.68;;
70558;SDS011;58108;48.094;11.838;2024-01-10T04:02:56;9.57;;;2.37;;
70558;SDS011;58108;48.094;11.838;2024-01-10T04:05:22;13.73;;;4.57;;
70558;SDS011;58108;48.094;11.838;2024-01-10T04:07:49;18.02;;;5.53;;
70558;SDS011;58108;48.094;11.838;2024-01-10T04:10:15;23.00;;;7.13;;
70558;SDS011;58108;48.094;11.838;2024-01-10T04:12:41;8.35;;;2.75;;
70558;SDS011;58108;48.094;11.838;2024-01-10T04:15:07;22.63;;;5.95;;
70558;SDS011;58108;48.094;11.838;2024-01-10T04:17:32;16.47;;;5.13;;
70558;SDS011;58108;48.094;11.838;2024-01-10T04:19:58;18.38;;;5.10;;
70558;SDS011;58108;48.094;11.838;2024-01-10T04:22:24;18.10;;;5.25;;
70558;SDS011;58108;48.094;11.838;2024-01-10T04:24:50;17.38;;;5.38;;
70558;SDS011;58108;48.094;11.838;2024-01-10T04:27:16;14.03;;;4.60;;
70558;SDS011;58108;48.094;11.838;2024-01-10T04:29:43;16.55;;;4.18;;
70558;SDS011;58108;48.094;11.838;2024-01-10T04:32:09;27.23;;;6.97;;
70558;SDS011;58108;48.094;11.838;2024-01-10T04:34:35;24.40;;;6.47;;
70558;SDS011;58108;48.094;11.838;2024-01-10T04:37:01;27.80;;;7.50;;
70558;SDS011;58108;48.094;11.838;2024-01-10T04:39:27;27.30;;;6.97;;
70558;SDS011;58108;48.094;11.838;2024-01-10T04:41:52;26.27;;;6.03;;
70558;SDS011;58108;48.094;11.838;2024-01-10T04:44:18;30.90;;;8.10;;
70558;SDS011;58108;48.094;11.838;2024-01-10T04:46:43;19.02;;;5.78;;
70558;SDS011;58108;48.094;11.838;2024-01-10T04:49:09;9.73;;;3.03;;
70558;SDS011;58108;48.094;11.838;2024-01-10T04:51:35;21.42;;;5.90;;
70558;SDS011;58108;48.094;11.838;2024-01-10T04:54:00;6.73;;;2.03;;
70558;SDS011;58108;48.094;11.838;2024-01-10T04:56:26;17.98;;;4.30;;
70558;SDS011;58108;48.094;11.838;2024-01-10T04:58:52;15.90;;;4.93;;
70558;SDS011;58108;48.094;11.838;2024-01-10T05:01:17;26.03;;;6.70;;
70558;SDS011;58108;48.094;11.838;2024-01-10T05:03:43;27.50;;;6.88;;
70558;SDS011;58108;48.094;11.838;2024-01-10T05:06:09;30.83;;;7.67;;
70558;SDS011;58108;48.094;11.838;2024-01-10T05:08:34;18.58;;;4.95;;
70558;SDS011;58108;48.094;11.838;2024-01-10T05:11:00;35.47;;;9.67;;
70558;SDS011;58108;48.094;11.838;2024-01-10T05:13:26;31.02;;;7.00;;
70558;SDS011;58108;48.094;11.838;2024-01-10T05:15:51;28.30;;;6.80;;
70558;SDS011;58108;48.094;11.838;2024-01-10T05:18:17;23.20;;;7.13;;
70558;SDS011;58108;48.094;11.838;2024-01-10T05:20:43;31.10;;;7.60;;
70558;SDS011;58108;48.094;11.838;2024-01-10T05:23:09;33.10;;;7.20;;
70558;SDS011;58108;48.094;11.838;2024-01-10T05:25:35;26.90;;;7.68;;
70558;SDS011;58108;48.094;11.838;2024-01-10T05:28:00;34.97;;;7.53;;
70558;SDS011;58108;48.094;11.838;2024-01-10T05:30:26;35.50;;;7.40;;
70558;SDS011;58108;48.094;11.838;2024-01-10T05:32:51;22.20;;;5.60;;
70558;SDS011;58108;48.094;11.838;2024-01-10T05:35:17;31.90;;;8.13;;
70558;SDS011;58108;48.094;11.838;2024-01-10T05:37:42;11.83;;;4.07;;
70558;SDS011;58108;48.094;11.838;2024-01-10T05:40:09;10.93;;;3.63;;
70558;SDS011;58108;48.094;11.838;2024-01-10T05:42:35;14.02;;;3.47;;
70558;SDS011;58108;48.094;11.838;2024-01-10T05:45:00;24.47;;;6.53;;
70558;SDS011;58108;48.094;11.838;2024-01-10T05:47:27;15.27;;;5.20;;
70558;SDS011;58108;48.094;11.838;2024-01-10T05:49:53;28.63;;;6.20;;
70558;SDS011;58108;48.094;11.838;2024-01-10T05:52:19;29.80;;;6.87;;
70558;SDS011;58108;48.094;11.838;2024-01-10T05:54:45;24.13;;;6.10;;
70558;SDS011;58108;48.094;11.838;2024-01-10T05:57:10;30.40;;;7.50;;
70558;SDS011;58108;48.094;11.838;2024-01-10T05:59:36;31.40;;;8.18;;
70558;SDS011;58108;48.094;11.838;2024-01-10T06:02:05;34.63;;;8.73;;
70558;SDS011;58108;48.094;11.838;2024-01-10T06:04:30;40.17;;;9.68;;
70558;SDS011;58108;48.094;11.838;2024-01-10T06:06:57;36.63;;;8.13;;
70558;SDS011;58108;48.094;11.838;2024-01-10T06:09:23;29.35;;;8.52;;
70558;SDS011;58108;48.094;11.838;2024-01-10T06:11:49;30.33;;;8.60;;
70558;SDS011;58108;48.094;11.838;2024-01-10T06:14:14;40.13;;;9.13;;
70558;SDS011;58108;48.094;11.838;2024-01-10T06:16:40;34.42;;;8.43;;
70558;SDS011;58108;48.094;11.838;2024-01-10T06:19:06;34.63;;;8.47;;
70558;SDS011;58108;48.094;11.838;2024-01-10T06:21:31;33.00;;;7.60;;
70558;SDS011;58108;48.094;11.838;2024-01-10T06:23:57;30.25;;;7.57;;
70558;SDS011;58108;48.094;11.838;2024-01-10T06:26:22;35.88;;;8.80;;
70558;SDS011;58108;48.094;11.838;2024-01-10T06:28:48;30.53;;;8.83;;
70558;SDS011;58108;48.094;11.838;2024-01-10T06:31:13;32.67;;;8.33;;
70558;SDS011;58108;48.094;11.838;2024-01-10T06:33:39;40.13;;;9.23;;
70558;SDS011;58108;48.094;11.838;2024-01-10T06:36:04;30.40;;;8.43;;
70558;SDS011;58108;48.094;11.838;2024-01-10T06:38:30;37.70;;;8.80;;
70558;SDS011;58108;48.094;11.838;2024-01-10T06:40:56;36.70;;;8.82;;
70558;SDS011;58108;48.094;11.838;2024-01-10T06:43:22;22.03;;;5.90;;
70558;SDS011;58108;48.094;11.838;2024-01-10T06:45:47;36.00;;;8.77;;
70558;SDS011;58108;48.094;11.838;2024-01-10T06:48:13;28.40;;;7.68;;
70558;SDS011;58108;48.094;11.838;2024-01-10T06:50:39;37.50;;;9.13;;
70558;SDS011;58108;48.094;11.838;2024-01-10T06:53:05;36.23;;;8.37;;
70558;SDS011;58108;48.094;11.838;2024-01-10T06:55:31;39.90;;;9.82;;
70558;SDS011;58108;48.094;11.838;2024-01-10T06:57:56;38.53;;;9.37;;
70558;SDS011;58108;48.094;11.838;2024-01-10T07:00:22;38.50;;;9.83;;
70558;SDS011;58108;48.094;11.838;2024-01-10T07:02:48;38.45;;;9.48;;
70558;SDS011;58108;48.094;11.838;2024-01-10T07:05:14;40.83;;;9.30;;
70558;SDS011;58108;48.094;11.838;2024-01-10T07:07:41;32.83;;;10.07;;
70558;SDS011;58108;48.094;11.838;2024-01-10T07:10:07;38.55;;;9.70;;
70558;SDS011;58108;48.094;11.838;2024-01-10T07:12:36;28.25;;;8.77;;
70558;SDS011;58108;48.094;11.838;2024-01-10T07:15:01;32.05;;;9.25;;
70558;SDS011;58108;48.094;11.838;2024-01-10T07:17:30;29.40;;;7.82;;
70558;SDS011;58108;48.094;11.838;2024-01-10T07:19:55;28.60;;;7.77;;
70558;SDS011;58108;48.094;11.838;2024-01-10T07:22:24;34.50;;;8.88;;
70558;SDS011;58108;48.094;11.838;2024-01-10T07:24:49;30.40;;;8.80;;
70558;SDS011;58108;48.094;11.838;2024-01-10T07:27:15;28.43;;;8.37;;
70558;SDS011;58108;48.094;11.838;2024-01-10T07:29:41;32.75;;;9.02;;
70558;SDS011;58108;48.094;11.838;2024-01-10T07:32:07;21.60;;;6.27;;
70558;SDS011;58108;48.094;11.838;2024-01-10T07:34:39;31.15;;;7.88;;
70558;SDS011;58108;48.094;11.838;2024-01-10T07:37:04;36.90;;;8.27;;
70558;SDS011;58108;48.094;11.838;2024-01-10T07:39:30;31.00;;;8.93;;
70558;SDS011;58108;48.094;11.838;2024-01-10T07:41:56;32.43;;;9.47;;
70558;SDS011;58108;48.094;11.838;2024-01-10T07:44:22;37.80;;;10.20;;
70558;SDS011;58108;48.094;11.838;2024-01-10T07:46:47;35.33;;;10.20;;
70558;SDS011;58108;48.094;11.838;2024-01-10T07:49:13;36.20;;;9.93;;
70558;SDS011;58108;48.094;11.838;2024-01-10T07:51:38;37.13;;;8.80;;
70558;SDS011;58108;48.094;11.838;2024-01-10T07:54:04;30.27;;;9.52;;
70558;SDS011;58108;48.094;11.838;2024-01-10T07:56:30;36.53;;;9.75;;
70558;SDS011;58108;48.094;11.838;2024-01-10T07:58:55;36.63;;;9.63;;
70558;SDS011;58108;48.094;11.838;2024-01-10T08:01:21;34.40;;;9.50;;
70558;SDS011;58108;48.094;11.838;2024-01-10T08:03:47;33.95;;;9.80;;
70558;SDS011;58108;48.094;11.838;2024-01-10T08:06:12;35.43;;;8.23;;
70558;SDS011;58108;48.094;11.838;2024-01-10T08:08:38;35.53;;;9.60;;
70558;SDS011;58108;48.094;11.838;2024-01-10T08:11:04;30.40;;;8.93;;
70558;SDS011;58108;48.094;11.838;2024-01-10T08:13:30;33.15;;;8.32;;
70558;SDS011;58108;48.094;11.838;2024-01-10T08:15:56;37.00;;;9.77;;
70558;SDS011;58108;48.094;11.838;2024-01-10T08:18:22;36.22;;;8.80;;
70558;SDS011;58108;48.094;11.838;2024-01-10T08:20:48;44.30;;;10.13;;
70558;SDS011;58108;48.094;11.838;2024-01-10T08:23:14;33.65;;;9.65;;
70558;SDS011;58108;48.094;11.838;2024-01-10T08:25:39;41.93;;;9.47;;
70558;SDS011;58108;48.094;11.838;2024-01-10T08:28:06;40.80;;;11.00;;
70558;SDS011;58108;48.094;11.838;2024-01-10T08:30:31;42.90;;;10.50;;
70558;SDS011;58108;48.094;11.838;2024-01-10T08:32:57;42.97;;;11.15;;
70558;SDS011;58108;48.094;11.838;2024-01-10T08:35:24;38.72;;;11.13;;
70558;SDS011;58108;48.094;11.838;2024-01-10T08:37:50;35.97;;;11.03;;
70558;SDS011;58108;48.094;11.838;2024-01-10T08:40:15;36.27;;;10.73;;
70558;SDS011;58108;48.094;11.838;2024-01-10T08:42:42;36.80;;;9.57;;
70558;SDS011;58108;48.094;11.838;2024-01-10T08:45:08;38.97;;;10.02;;
70558;SDS011;58108;48.094;11.838;2024-01-10T08:47:35;36.17;;;9.67;;
70558;SDS011;58108;48.094;11.838;2024-01-10T08:50:01;37.40;;;10.05;;
70558;SDS011;58108;48.094;11.838;2024-01-10T08:52:30;39.45;;;8.93;;
70558;SDS011;58108;48.094;11.838;2024-01-10T08:54:56;38.28;;;9.63;;
70558;SDS011;58108;48.094;11.838;2024-01-10T08:57:22;43.47;;;12.47;;
70558;SDS011;58108;48.094;11.838;2024-01-10T08:59:47;39.07;;;10.87;;
70558;SDS011;58108;48.094;11.838;2024-01-10T09:02:14;38.03;;;10.55;;
70558;SDS011;58108;48.094;11.838;2024-01-10T09:04:39;33.78;;;9.40;;
70558;SDS011;58108;48.094;11.838;2024-01-10T09:09:36;38.25;;;8.90;;
70558;SDS011;58108;48.094;11.838;2024-01-10T09:12:06;42.33;;;10.47;;
70558;SDS011;58108;48.094;11.838;2024-01-10T09:15:03;44.05;;;10.40;;
70558;SDS011;58108;48.094;11.838;2024-01-10T09:17:29;26.17;;;7.82;;
70558;SDS011;58108;48.094;11.838;2024-01-10T09:19:55;41.03;;;10.47;;
70558;SDS011;58108;48.094;11.838;2024-01-10T09:22:21;41.13;;;13.07;;
70558;SDS011;58108;48.094;11.838;2024-01-10T09:24:46;39.20;;;10.13;;
70558;SDS011;58108;48.094;11.838;2024-01-10T09:27:12;37.50;;;9.88;;
70558;SDS011;58108;48.094;11.838;2024-01-10T09:29:37;43.73;;;11.80;;
70558;SDS011;58108;48.094;11.838;2024-01-10T09:32:03;36.33;;;9.30;;
70558;SDS011;58108;48.094;11.838;2024-01-10T09:34:29;39.10;;;11.33;;
70558;SDS011;58108;48.094;11.838;2024-01-10T09:36:54;35.90;;;11.30;;
70558;SDS011;58108;48.094;11.838;2024-01-10T09:39:20;23.25;;;6.93;;
70558;SDS011;58108;48.094;11.838;2024-01-10T09:41:46;27.07;;;8.00;;
70558;SDS011;58108;48.094;11.838;2024-01-10T09:44:14;34.85;;;8.98;;
70558;SDS011;58108;48.094;11.838;2024-01-10T09:46:50;30.05;;;8.75;;
70558;SDS011;58108;48.094;11.838;2024-01-10T09:49:17;28.35;;;7.57;;
70558;SDS011;58108;48.094;11.838;2024-01-10T09:51:43;15.48;;;3.70;;
70558;SDS011;58108;48.094;11.838;2024-01-10T09:54:12;21.30;;;7.30;;
70558;SDS011;58108;48.094;11.838;2024-01-10T09:56:41;18.92;;;6.40;;
70558;SDS011;58108;48.094;11.838;2024-01-10T09:59:07;20.40;;;5.60;;
70558;SDS011;58108;48.094;11.838;2024-01-10T10:01:36;31.05;;;8.15;;
70558;SDS011;58108;48.094;11.838;2024-01-10T10:04:06;24.85;;;7.90;;
70558;SDS011;58108;48.094;11.838;2024-01-10T10:06:33;30.90;;;7.87;;
70558;SDS011;58108;48.094;11.838;2024-01-10T10:08:59;35.58;;;10.43;;
70558;SDS011;58108;48.094;11.838;2024-01-10T10:11:25;45.15;;;11.82;;
70558;SDS011;58108;48.094;11.838;2024-01-10T10:13:51;23.53;;;5.83;;
70558;SDS011;58108;48.094;11.838;2024-01-10T10:16:23;26.02;;;7.53;;
70558;SDS011;58108;48.094;11.838;2024-01-10T10:18:53;31.83;;;9.32;;
70558;SDS011;58108;48.094;11.838;2024-01-10T10:21:24;38.80;;;10.77;;
70558;SDS011;58108;48.094;11.838;2024-01-10T10:24:01;31.40;;;9.25;;
70558;SDS011;58108;48.094;11.838;2024-01-10T10:26:29;37.83;;;9.30;;
70558;SDS011;58108;48.094;11.838;2024-01-10T10:28:57;36.25;;;9.25;;
70558;SDS011;58108;48.094;11.838;2024-01-10T10:31:23;27.67;;;8.37;;
70558;SDS011;58108;48.094;11.838;2024-01-10T10:33:50;44.22;;;11.20;;
70558;SDS011;58108;48.094;11.838;2024-01-10T10:36:16;40.08;;;9.43;;
70558;SDS011;58108;48.094;11.838;2024-01-10T10:38:42;41.65;;;10.05;;
70558;SDS011;58108;48.094;11.838;2024-01-10T10:41:08;36.30;;;10.50;;
70558;SDS011;58108;48.094;11.838;2024-01-10T10:43:37;38.08;;;9.75;;
70558;SDS011;58108;48.094;11.838;2024-01-10T10:46:03;36.85;;;9.68;;
70558;SDS011;58108;48.094;11.838;2024-01-10T10:48:34;34.73;;;9.73;;
70558;SDS011;58108;48.094;11.838;2024-01-10T10:51:05;39.25;;;9.85;;
70558;SDS011;58108;48.094;11.838;2024-01-10T10:53:34;35.25;;;9.95;;
70558;SDS011;58108;48.094;11.838;2024-01-10T10:56:02;35.78;;;9.15;;
70558;SDS011;58108;48.094;11.838;2024-01-10T10:58:39;35.63;;;8.48;;
70558;SDS011;58108;48.094;11.838;2024-01-10T11:01:06;46.33;;;11.97;;
70558;SDS011;58108;48.094;11.838;2024-01-10T11:03:36;29.25;;;7.75;;
70558;SDS011;58108;48.094;11.838;2024-01-10T11:06:03;41.47;;;9.57;;
70558;SDS011;58108;48.094;11.838;2024-01-10T11:08:37;41.38;;;10.52;;
70558;SDS011;58108;48.094;11.838;2024-01-10T11:11:13;36.58;;;10.15;;
70558;SDS011;58108;48.094;11.838;2024-01-10T11:16:41;40.13;;;10.15;;
70558;SDS011;58108;48.094;11.838;2024-01-10T11:24:28;48.53;;;11.23;;
70558;SDS011;58108;48.094;11.838;2024-01-10T11:29:52;20.92;;;6.57;;
70558;SDS011;58108;48.094;11.838;2024-01-10T11:32:19;35.40;;;11.25;;
70558;SDS011;58108;48.094;11.838;2024-01-10T11:37:22;45.40;;;11.25;;
70558;SDS011;58108;48.094;11.838;2024-01-10T11:39:50;42.95;;;10.63;;
70558;SDS011;58108;48.094;11.838;2024-01-10T11:42:23;42.27;;;11.33;;
70558;SDS011;58108;48.094;11.838;2024-01-10T11:44:49;36.47;;;9.95;;
70558;SDS011;58108;48.094;11.838;2024-01-10T11:47:19;16.80;;;4.78;;
70558;SDS011;58108;48.094;11.838;2024-01-10T11:49:59;44.15;;;11.20;;
70558;SDS011;58108;48.094;11.838;2024-01-10T11:52:34;43.13;;;11.20;;
70558;SDS011;58108;48.094;11.838;2024-01-10T11:55:01;43.97;;;11.30;;
70558;SDS011;58108;48.094;11.838;2024-01-10T11:57:28;48.47;;;10.60;;
70558;SDS011;58108;48.094;11.838;2024-01-10T11:59:57;46.13;;;11.68;;
70558;SDS011;58108;48.094;11.838;2024-01-10T12:02:25;42.88;;;10.98;;
70558;SDS011;58108;48.094;11.838;2024-01-10T12:04:56;42.10;;;11.27;;
70558;SDS011;58108;48.094;11.838;2024-01-10T12:07:21;52.57;;;12.40;;
70558;SDS011;58108;48.094;11.838;2024-01-10T12:09:48;46.60;;;12.70;;
70558;SDS011;58108;48.094;11.838;2024-01-10T12:12:15;41.75;;;10.55;;
70558;SDS011;58108;48.094;11.838;2024-01-10T12:14:41;40.90;;;10.65;;
70558;SDS011;58108;48.094;11.838;2024-01-10T12:17:09;46.53;;;12.10;;
70558;SDS011;58108;48.094;11.838;2024-01-10T12:19:35;33.97;;;9.25;;
70558;SDS011;58108;48.094;11.838;2024-01-10T12:22:02;34.60;;;8.40;;
70558;SDS011;58108;48.094;11.838;2024-01-10T12:24:30;35.70;;;9.90;;
70558;SDS011;58108;48.094;11.838;2024-01-10T12:26:56;41.33;;;11.02;;
70558;SDS011;58108;48.094;11.838;2024-01-10T12:29:22;42.17;;;12.02;;
70558;SDS011;58108;48.094;11.838;2024-01-10T12:31:48;40.20;;;9.80;;
70558;SDS011;58108;48.094;11.838;2024-01-10T12:34:14;42.40;;;10.13;;
70558;SDS011;58108;48.094;11.838;2024-01-10T12:36:43;46.03;;;11.60;;
70558;SDS011;58108;48.094;11.838;2024-01-10T12:39:09;42.13;;;10.73;;
70558;SDS011;58108;48.094;11.838;2024-01-10T12:41:37;45.95;;;11.27;;
70558;SDS011;58108;48.094;11.838;2024-01-10T12:44:03;41.67;;;10.15;;
70558;SDS011;58108;48.094;11.838;2024-01-10T12:46:30;41.67;;;10.38;;
70558;SDS011;58108;48.094;11.838;2024-01-10T12:51:30;42.43;;;9.73;;
70558;SDS011;58108;48.094;11.838;2024-01-10T12:53:58;40.80;;;10.65;;
70558;SDS011;58108;48.094;11.838;2024-01-10T12:56:25;48.40;;;12.05;;
70558;SDS011;58108;48.094;11.838;2024-01-10T12:58:52;38.47;;;10.55;;
70558;SDS011;58108;48.094;11.838;2024-01-10T13:01:18;21.35;;;6.45;;
70558;SDS011;58108;48.094;11.838;2024-01-10T13:03:44;34.80;;;9.53;;
70558;SDS011;58108;48.094;11.838;2024-01-10T13:06:10;32.97;;;8.68;;
70558;SDS011;58108;48.094;11.838;2024-01-10T13:08:36;32.87;;;8.43;;
70558;SDS011;58108;48.094;11.838;2024-01-10T13:11:02;15.95;;;5.50;;
70558;SDS011;58108;48.094;11.838;2024-01-10T13:13:35;31.70;;;8.60;;
70558;SDS011;58108;48.094;11.838;2024-01-10T13:16:01;24.67;;;7.32;;
70558;SDS011;58108;48.094;11.838;2024-01-10T13:18:27;18.83;;;5.13;;
70558;SDS011;58108;48.094;11.838;2024-01-10T13:20:54;30.92;;;8.63;;
70558;SDS011;58108;48.094;11.838;2024-01-10T13:23:20;33.50;;;9.18;;
70558;SDS011;58108;48.094;11.838;2024-01-10T13:25:50;35.03;;;6.68;;
70558;SDS011;58108;48.094;11.838;2024-01-10T13:28:18;30.05;;;8.20;;
70558;SDS011;58108;48.094;11.838;2024-01-10T13:30:44;22.00;;;5.70;;
70558;SDS011;58108;48.094;11.838;2024-01-10T13:33:10;35.83;;;9.35;;
70558;SDS011;58108;48.094;11.838;2024-01-10T13:35:36;33.85;;;9.35;;
70558;SDS011;58108;48.094;11.838;2024-01-10T13:38:02;21.33;;;6.90;;
70558;SDS011;58108;48.094;11.838;2024-01-10T13:40:28;40.25;;;9.43;;
70558;SDS011;58108;48.094;11.838;2024-01-10T13:42:53;41.27;;;10.67;;
70558;SDS011;58108;48.094;11.838;2024-01-10T13:45:19;41.40;;;10.32;;
70558;SDS011;58108;48.094;11.838;2024-01-10T13:47:45;42.45;;;10.23;;
70558;SDS011;58108;48.094;11.838;2024-01-10T13:50:11;43.80;;;10.50;;
70558;SDS011;58108;48.094;11.838;2024-01-10T13:52:37;39.07;;;10.57;;
70558;SDS011;58108;48.094;11.838;2024-01-10T13:55:02;41.88;;;10.07;;
70558;SDS011;58108;48.094;11.838;2024-01-10T13:57:31;45.13;;;10.90;;
70558;SDS011;58108;48.094;11.838;2024-01-10T13:59:58;39.47;;;9.73;;
70558;SDS011;58108;48.094;11.838;2024-01-10T14:02:24;43.15;;;10.70;;
70558;SDS011;58108;48.094;11.838;2024-01-10T14:04:50;42.45;;;11.18;;
70558;SDS011;58108;48.094;11.838;2024-01-10T14:07:17;41.15;;;10.77;;
70558;SDS011;58108;48.094;11.838;2024-01-10T14:09:43;35.17;;;9.57;;
70558;SDS011;58108;48.094;11.838;2024-01-10T14:12:08;33.72;;;9.38;;
70558;SDS011;58108;48.094;11.838;2024-01-10T14:14:34;45.83;;;10.90;;
70558;SDS011;58108;48.094;11.838;2024-01-10T14:17:00;33.03;;;9.17;;
70558;SDS011;58108;48.094;11.838;2024-01-10T14:19:25;42.45;;;10.40;;
70558;SDS011;58108;48.094;11.838;2024-01-10T14:21:51;30.37;;;8.97;;
70558;SDS011;58108;48.094;11.838;2024-01-10T14:24:17;30.27;;;9.05;;
70558;SDS011;58108;48.094;11.838;2024-01-10T14:26:43;42.00;;;10.63;;
70558;SDS011;58108;48.094;11.838;2024-01-10T14:29:09;32.47;;;8.13;;
70558;SDS011;58108;48.094;11.838;2024-01-10T14:31:36;28.00;;;8.57;;
70558;SDS011;58108;48.094;11.838;2024-01-10T14:34:02;35.75;;;9.07;;